Latest Coastal Weather Observations for Low Rocky Point

IDT60701

Issued at 8:32 am EDT Wednesday 29 March 2017 (issued every 10 minutes, with the page automatically refreshed every 10 minutes)

About coastal observations | Map of coastal stations | Coastal observations for TAS | Marine services | Other Formats
Station Details ID: 097080 Name: LOW ROCKY POINT Lat: -42.98 Lon: 145.50 Height: 34.0 m
Data from the previous 72 hours. | See also: Recent months at Low Rocky Point
Date/Time
EDT
Temp
°C
Wind Pressure Rain since
9am
mm
Weather Cloud Vis
km
Sea
Height
m
Swell
Dir  Spd
kts
Gust
kts
hPa Trend Height
m
Period
s
Dir
29/08:30am 16.6 NNW 28 39 999.7 - 3.2 - - - - - - -
29/08:00am 16.3 NNW 30 43 999.5 - 3.2 - - - - - - -
29/07:35am 16.1 NNW 29 41 999.7 - 3.2 - - - - - - -
29/07:30am 15.9 NNW 27 36 999.8 - 3.2 - - - - - - -
29/07:00am 16.0 NNW 29 39 999.7 - 3.2 - - - - - - -
29/06:50am 16.4 NNW 31 41 999.7 - 3.2 - - - - - - -
29/06:46am 16.4 NNW 29 41 999.8 - 3.2 - - - - - - -
29/06:31am 16.2 NNW 26 38 1000.3 - 3.2 - - - - - - -
29/06:30am 16.3 NNW 26 38 1000.3 - 3.2 - - - - - - -
29/06:29am 16.3 NNW 26 38 1000.3 - 3.2 - - - - - - -
29/06:28am 16.3 NNW 26 38 1000.3 - 3.2 - - - - - - -
29/06:00am 16.6 NNW 32 44 1000.5 - 3.2 - - - - - - -
29/05:56am 16.5 NNW 31 44 1000.4 - 3.2 - - - - - - -
29/05:54am 16.4 NNW 31 44 1000.4 - 3.2 - - - - - - -
29/05:30am 15.6 NNW 25 39 1000.9 - 3.2 - - - - - - -
29/05:00am 14.8 NNW 29 41 1000.8 - 3.2 Rain - - - - - -
29/04:50am 14.7 NNW 37 47 1000.8 - 3.0 - - - - - - -
29/04:43am 15.6 NNW 34 46 1000.9 - 3.0 - - - - - - -
29/04:30am 16.8 NNW 29 40 1000.9 - 3.0 - - - - - - -
29/04:00am 16.5 NNW 30 41 1001.2 - 3.0 - - - - - - -
29/03:30am 16.7 NNW 30 42 1001.5 - 3.0 - - - - - - -
29/03:00am 16.5 NNW 29 39 1001.9 - 3.0 - - - - - - -
29/02:30am 15.9 NNW 34 45 1002.4 - 3.0 - - - - - - -
29/02:00am 16.4 NNW 28 39 1002.7 - 3.0 - - - - - - -
29/01:30am 15.9 NNW 30 43 1002.9 - 3.0 - - - - - - -
29/01:00am 15.7 NNW 28 38 1003.0 - 3.0 - - - - - - -
29/12:30am 15.9 NNW 28 38 1003.3 - 3.0 - - - - - - -
29/12:03am 15.7 NNW 31 41 1003.4 - 3.0 - - - - - - -
29/12:00am 15.6 NNW 33 41 1003.4 - 3.0 Recent precip. - - - - - -
 
Date/Time
EDT
Temp
°C
Wind Pressure Rain since
9am
mm
Weather Cloud Vis
km
Sea
Height
m
Swell
Dir  Spd
kts
Gust
kts
hPa Trend Height
m
Period
s
Dir
28/11:35pm 15.7 NW 30 40 1003.8 - 2.8 - - - - - - -
28/11:30pm 15.9 NW 30 38 1003.9 - 2.4 - - - - - - -
28/11:00pm 15.7 NNW 29 39 1004.0 - 2.4 Recent precip. - - - - - -
28/10:30pm 15.6 NNW 27 37 1004.2 - 2.4 - - - - - - -
28/10:17pm 15.4 NNW 30 42 1004.3 - 2.4 - - - - - - -
28/10:00pm 15.6 NNW 31 39 1004.5 - 2.2 Recent precip. - - - - - -
28/09:31pm 15.9 NNW 29 39 1004.5 - 1.0 - - - - - - -
28/09:30pm 15.9 NNW 30 39 1004.5 - 1.0 - - - - - - -
28/09:00pm 15.8 NNW 25 38 1004.7 - 1.0 - - - - - - -
28/08:30pm 16.2 NNW 27 37 1004.7 - 1.0 - - - - - - -
28/08:00pm 15.7 NNW 32 45 1004.5 - 1.0 Recent precip. - - - - - -
28/07:43pm 15.8 NW 31 41 1004.6 - 0.8 - - - - - - -
28/07:30pm 15.8 NNW 32 40 1004.4 - 0.8 - - - - - - -
28/07:05pm 16.6 NNW 28 38 1004.2 - 0.8 - - - - - - -
28/07:00pm 16.8 NNW 28 36 1004.2 - 0.8 - - - - - - -
28/06:30pm 16.8 NNW 28 38 1004.3 - 0.8 - - - - - - -
28/06:00pm 16.8 NNW 29 39 1004.0 - 0.8 - - - - - - -
28/05:33pm 16.8 NNW 28 38 1004.2 - 0.8 - - - - - - -
28/05:30pm 16.8 NNW 28 37 1004.3 - 0.8 - - - - - - -
28/05:00pm 17.2 NNW 28 38 1004.2 - 0.8 - - - - - - -
28/04:37pm 17.4 NNW 27 37 1004.3 - 0.8 - - - - - - -
28/04:30pm 17.4 NNW 28 37 1004.4 - 0.8 - - - - - - -
28/04:01pm 17.4 NNW 28 39 1004.7 - 0.8 - - - - - - -
28/04:00pm 17.5 NNW 28 36 1004.7 - 0.8 - - - - - - -
28/03:30pm 16.9 NW 32 39 1005.0 - 0.8 - - - - - - -
28/03:00pm 16.9 NW 31 38 1005.1 - 0.8 - - - - - - -
28/02:32pm 17.5 NW 31 41 1005.1 - 0.8 - - - - - - -
28/02:30pm 17.3 NW 32 41 1005.2 - 0.8 - - - - - - -
28/02:00pm 16.4 NW 34 45 1005.3 - 0.8 Recent precip. - - - - - -
28/01:30pm 14.3 NW 36 46 1005.4 - 0.6 - - - - - - -
28/01:04pm 17.6 NW 33 44 1005.4 - 0.2 - - - - - - -
28/01:00pm 17.9 NW 34 40 1005.5 - 0.2 - - - - - - -
28/12:30pm 17.3 NW 34 43 1005.7 - 0.2 - - - - - - -
28/12:01pm 16.7 NW 34 44 1005.7 - 0.2 - - - - - - -
28/12:00pm 16.9 NW 35 44 1005.7 - 0.2 - - - - - - -
28/11:52am 16.9 NW 34 44 1005.6 - 0.2 - - - - - - -
28/11:30am 16.6 NNW 33 41 1005.8 - 0.2 - - - - - - -
28/11:06am 16.3 NNW 27 38 1005.9 - 0.2 - - - - - - -
28/11:00am 16.4 NNW 28 35 1006.0 - 0.2 - - - - - - -
28/10:49am 16.4 NNW 26 36 1005.9 - 0.2 - - - - - - -
28/10:30am 16.1 NNW 29 37 1005.9 - 0.2 - - - - - - -
28/10:00am 15.2 NW 33 44 1005.9 - 0.2 Recent precip. - - - - - -
28/09:33am 14.2 NW 31 41 1005.9 - 0.2 - - - - - - -
28/09:30am 14.1 NW 32 41 1005.8 - 0.2 - - - - - - -
28/09:14am 14.2 NW 31 41 1005.8 - 0.2 - - - - - - -
28/09:00am 14.5 NW 31 40 1005.8 - 18.2 Recent precip. - - - - - -
28/08:30am 14.3 NW 32 49 1005.6 - 18.2 - - - - - - -
28/08:07am 14.9 NW 31 41 1005.3 - 18.0 - - - - - - -
28/08:00am 15.0 NW 31 39 1005.1 - 18.0 - - - - - - -
28/07:39am 15.5 NW 31 41 1005.2 - 18.0 - - - - - - -
28/07:30am 15.6 NW 32 41 1005.1 - 18.0 - - - - - - -
28/07:02am 15.0 NW 31 42 1004.9 - 18.0 - - - - - - -
28/07:00am 15.0 NW 30 37 1005.0 - 18.0 - - - - - - -
28/06:30am 15.1 NW 30 40 1004.7 - 18.0 - - - - - - -
28/06:27am 14.9 NW 29 39 1004.7 - 18.0 - - - - - - -
28/06:00am 13.9 NW 31 39 1004.8 - 18.0 Rain - - - - - -
28/05:30am 15.5 NW 30 39 1004.4 - 17.8 - - - - - - -
28/05:00am 15.5 NW 31 39 1004.2 - 17.8 Recent precip. - - - - - -
28/04:31am 15.0 NW 31 42 1004.1 - 17.8 - - - - - - -
28/04:30am 15.0 NW 31 38 1004.1 - 17.8 - - - - - - -
28/04:02am 15.4 NW 27 37 1004.3 - 17.6 - - - - - - -
28/04:00am 15.4 NW 29 37 1004.3 - 17.6 - - - - - - -
28/03:30am 15.6 NW 31 42 1004.2 - 17.6 - - - - - - -
28/03:26am 15.6 NW 32 42 1004.2 - 17.6 - - - - - - -
28/03:00am 15.4 NW 31 39 1004.0 - 17.6 - - - - - - -
28/02:30am 15.3 NW 31 38 1004.0 - 17.6 - - - - - - -
28/02:10am 15.5 NW 29 42 1004.0 - 17.6 - - - - - - -
28/02:00am 15.7 NW 31 39 1004.2 - 17.6 - - - - - - -
28/01:48am 15.7 NW 31 41 1004.2 - 17.6 - - - - - - -
28/01:30am 15.7 NW 32 41 1004.1 - 17.6 - - - - - - -
28/01:19am 15.6 NW 30 40 1004.2 - 17.6 - - - - - - -
28/01:00am 15.4 NW 29 34 1004.1 - 17.6 - - - - - - -
28/12:30am 15.6 NW 30 38 1004.4 - 17.6 - - - - - - -
28/12:07am 15.7 NW 29 39 1004.5 - 17.6 - - - - - - -
28/12:00am 15.7 NW 30 37 1004.6 - 17.6 - - - - - - -
 
Date/Time
EDT
Temp
°C
Wind Pressure Rain since
9am
mm
Weather Cloud Vis
km
Sea
Height
m
Swell
Dir  Spd
kts
Gust
kts
hPa Trend Height
m
Period
s
Dir
27/11:34pm 15.4 NW 30 40 1004.7 - 17.6 - - - - - - -
27/11:30pm 15.7 NW 28 36 1004.6 - 17.6 - - - - - - -
27/11:00pm 15.8 NW 30 37 1004.8 - 17.6 - - - - - - -
27/10:30pm 15.6 NW 31 39 1004.7 - 17.6 - - - - - - -
27/10:16pm 15.7 NW 28 39 1004.5 - 17.6 - - - - - - -
27/10:00pm 15.7 WNW 32 40 1004.5 - 17.6 - - - - - - -
27/09:30pm 15.6 WNW 32 40 1003.8 - 17.6 - - - - - - -
27/09:00pm 15.4 NW 31 41 1002.9 - 17.6 Recent precip. - - - - - -
27/08:30pm 15.0 WNW 35 46 1002.0 - 17.6 - - - - - - -
27/08:05pm 15.7 NW 33 43 1001.2 - 17.2 - - - - - - -
27/08:00pm 16.2 NW 33 41 1001.0 - 17.2 - - - - - - -
27/07:34pm 16.2 WNW 35 45 1000.9 - 17.2 - - - - - - -
27/07:30pm 16.2 WNW 37 45 1000.8 - 17.2 - - - - - - -
27/07:03pm 16.0 NW 34 45 1000.2 - 17.2 - - - - - - -
27/07:00pm 16.0 NW 34 43 1000.1 - 17.2 - - - - - - -
27/06:41pm 15.7 NW 31 42 1000.0 - 17.2 - - - - - - -
27/06:30pm 15.4 NW 33 41 999.7 - 17.2 - - - - - - -
27/06:02pm 16.3 NW 35 45 999.4 - 17.2 - - - - - - -
27/06:00pm 16.3 NW 36 45 999.3 - 17.2 Recent precip. - - - - - -
27/05:44pm 16.4 NW 37 47 999.0 - 17.2 - - - - - - -
27/05:30pm 16.5 NW 36 45 998.8 - 17.0 - - - - - - -
27/05:12pm 16.6 NW 32 42 999.1 - 17.0 - - - - - - -
27/05:00pm 16.6 NW 33 42 999.2 - 17.0 - - - - - - -
27/04:49pm 16.1 NW 32 40 999.3 - 17.0 - - - - - - -
27/04:30pm 15.8 NNW 23 34 999.7 - 17.0 - - - - - - -
27/04:00pm 14.0 NNW 19 27 1000.4 - 17.0 - - - - - - -
27/03:30pm 13.0 NNW 19 29 1000.8 - 17.0 - - - - - - -
27/03:18pm 13.2 NNW 22 32 1000.2 - 17.0 - - - - - - -
27/03:00pm 13.3 NNW 24 32 999.8 - 17.0 Recent precip. - - - - - -
27/02:45pm 14.1 NW 26 36 1000.7 - 16.8 - - - - - - -
27/02:30pm 14.1 WNW 32 39 1000.3 - 15.8 - - - - - - -
27/02:04pm 15.4 NW 34 44 999.0 - 11.4 - - - - - - -
27/02:00pm 15.5 NW 35 44 998.9 - 10.6 Rain - - - - - -
27/01:30pm 15.6 NW 39 51 997.8 - 8.4 - - - - - - -
27/01:00pm 15.6 NW 35 46 997.0 - 7.2 Rain - - - - - -
27/12:55pm 15.5 NW 41 55 996.8 - 7.0 - - - - - - -
27/12:46pm 16.1 NW 42 62 996.5 - 6.0 - - - - - - -
27/12:43pm 18.0 NW 37 55 996.4 - 4.0 - - - - - - -
27/12:34pm 18.5 NW 33 43 995.9 - 1.8 - - - - - - -
27/12:30pm 19.3 NNW 33 40 995.5 - 1.0 - - - - - - -
27/12:00pm 23.0 NNW 26 39 994.2 - 0.4 - - - - - - -
27/11:30am 23.4 NNW 21 31 994.6 - 0.4 - - - - - - -
27/11:06am 22.8 N 19 29 995.1 - 0.4 - - - - - - -
27/11:00am 22.8 N 19 28 995.4 - 0.4 Recent precip. - - - - - -
27/10:30am 21.2 N 19 30 996.0 - 0.4 - - - - - - -
27/10:17am 20.8 N 17 27 996.0 - 0.2 - - - - - - -
27/10:00am 21.9 NNE 19 25 996.0 - 0.2 Recent precip. - - - - - -
27/09:30am 21.1 N 17 23 996.3 - 0.2 - - - - - - -
27/09:00am 20.6 NNE 18 25 996.9 - 0.0 - - - - - - -
27/08:30am 21.1 NNE 18 25 997.8 - 0.0 - - - - - - -
27/08:00am 19.6 NNE 16 22 998.3 - 0.0 - - - - - - -
27/07:30am 19.4 N 11 15 999.5 - 0.0 - - - - - - -
27/07:00am 18.7 NNE 16 21 999.7 - 0.0 - - - - - - -
27/06:30am 18.1 NNE 18 23 999.9 - 0.0 - - - - - - -
27/06:00am 17.4 NNE 18 24 1000.4 - 0.0 - - - - - - -
27/05:30am 16.5 NNE 16 22 1001.3 - 0.0 - - - - - - -
27/05:27am 16.3 NNE 16 22 1001.2 - 0.0 - - - - - - -
27/05:00am 14.7 N 7 12 1001.9 - 0.0 - - - - - - -
27/04:30am 14.0 NNW 5 7 1002.6 - 0.0 - - - - - - -
27/04:00am 13.9 NNW 5 7 1003.0 - 0.0 - - - - - - -
27/03:30am 13.8 N 8 10 1003.9 - 0.0 - - - - - - -
27/03:00am 14.8 N 10 12 1004.8 - 0.0 - - - - - - -
27/02:30am 14.2 NNE 10 13 1005.7 - 0.0 - - - - - - -
27/02:00am 14.7 N 11 13 1006.5 - 0.0 - - - - - - -
27/01:30am 15.2 N 11 13 1007.1 - 0.0 - - - - - - -
27/01:00am 15.0 N 7 8 1007.9 - 0.0 - - - - - - -
27/12:30am 14.9 N 8 10 1008.3 - 0.0 - - - - - - -
27/12:00am 14.5 N 7 10 1009.0 - 0.0 - - - - - - -
 
Date/Time
EDT
Temp
°C
Wind Pressure Rain since
9am
mm
Weather Cloud Vis
km
Sea
Height
m
Swell
Dir  Spd
kts
Gust
kts
hPa Trend Height
m
Period
s
Dir
26/11:30pm 14.8 NNE 7 10 1009.5 - 0.0 - - - - - - -
26/11:00pm 15.6 NNE 10 11 1009.9 - 0.0 - - - - - - -
26/10:30pm 15.5 NE 8 8 1010.5 - 0.0 - - - - - - -
26/10:00pm 14.9 NE 8 9 1010.9 - 0.0 - - - - - - -
26/09:30pm 14.4 E 6 7 1011.2 - 0.0 - - - - - - -
26/09:00pm 15.0 ESE 9 9 1011.3 - 0.0 - - - - - - -
26/08:30pm 15.2 ESE 9 10 1011.5 - 0.0 - - - - - - -
26/08:00pm 15.5 ESE 10 11 1011.7 - 0.0 - - - - - - -
26/07:30pm 15.7 ESE 10 12 1011.7 - 0.0 - - - - - - -
26/07:00pm 16.3 ESE 9 10 1012.0 - 0.0 - - - - - - -
26/06:30pm 17.3 SE 8 10 1012.2 - 0.0 - - - - - - -
26/06:00pm 18.1 SSE 7 9 1012.4 - 0.0 - - - - - - -
26/05:30pm 18.6 SSE 7 9 1012.8 - 0.0 - - - - - - -
26/05:00pm 18.8 SSE 8 10 1012.7 - 0.0 - - - - - - -
26/04:30pm 18.9 SE 10 12 1012.8 - 0.0 - - - - - - -
26/04:00pm 18.9 SE 9 11 1013.2 - 0.0 - - - - - - -
26/03:30pm 18.4 SE 9 11 1013.5 - 0.0 - - - - - - -
26/03:00pm 18.1 SSE 8 10 1013.9 - 0.0 - - - - - - -
26/02:30pm 18.1 SSE 9 11 1014.2 - 0.0 - - - - - - -
26/02:00pm 18.4 SSE 8 11 1014.4 - 0.0 - - - - - - -
26/01:30pm 17.7 SSE 8 11 1014.9 - 0.0 - - - - - - -
26/01:00pm 17.9 SSE 7 10 1015.2 - 0.0 - - - - - - -
26/12:30pm 17.8 SSE 8 10 1015.6 - 0.0 - - - - - - -
26/12:00pm 17.9 SE 8 9 1015.8 - 0.0 - - - - - - -
26/11:30am 17.4 SE 9 10 1015.7 - 0.0 - - - - - - -
26/11:00am 17.6 SE 8 10 1015.7 - 0.0 - - - - - - -
26/10:30am 16.5 SSE 7 8 1015.9 - 0.0 - - - - - - -
26/10:00am 16.1 SSE 6 7 1015.9 - 0.0 - - - - - - -
26/09:30am 16.0 SE 5 6 1015.6 - 0.0 - - - - - - -
26/09:00am 15.8 SE 5 7 1015.4 - 2.2 - - - - - - -

Other Formats:

Comma delimited format used in spreadsheet applications
http://www.bom.gov.au/fwo/IDT60701/IDT60701.95961.axf

JavaScript Object Notation format (JSON) in row-major order
http://www.bom.gov.au/fwo/IDT60701/IDT60701.95961.json